Airfield :
LOGIN :

Register | Disclaimer

   EN    FR    IT 

 










Legend :    VFR   Marginal VFR   IFR   Intensive IFR   Very Intensive IFR
Visi :
Ceiling :
>= 8 km
>= 3000ft
5 to 8 km
1000 to 3000 ft
1500m to 5 km
500 to 1000 ft
800 to 1500m
200 to 500 ft
< 800m
< 200 ft
Symbols :   Thunderstorms  Fog  Heavy snow  Heavy precipitations  Wind > 20 kt
SIGMETs :     Misc.  Thunderstorms  Icing  Turbulence  Mountain Waves  Volcanic Ashes






- Airport Elevation : 388 ft
- IATA code : QYR


LFQB - Troyes Barberey

CURRENT METAR :
  • 241530Z AUTO 19014KT 9999 BKN043 BKN056 OVC068 20/13 Q1001

EXPIRED METARs :
  • 241500Z AUTO 19013KT 160V230 9999 FEW049 BKN072 BKN180 20/13 Q1002
  • 241430Z AUTO 20010KT 170V230 9999 SCT046 BKN056 BKN170 20/10 Q1002
  • 241400Z AUTO 20012KT 9999 SCT040 BKN046 BKN054 20/11 Q1003
  • 241330Z AUTO 20012KT 9999 SCT042 BKN054 BKN064 20/12 Q1003
  • 241300Z AUTO 19016KT 9999 BKN043 BKN052 BKN070 20/11 Q1004

TAF N/A



MET'MAP, your aeronautical weather chart ! - Copyright ORBIFLY December 2007 - Disclaimer

ORBIFLY MET'MAP TEAM :

Programming & Development : Alexandra Zaïnal
Concept & original design : Baudouin d'Aumeries
Assistance for programming : Marc-Olivier Méhu
Technical & hardware support : Manuel Goepfert

Contact : metmap@orbifly.com




SOURCES & CREDITS :

   NOAA